sim
Sign-in with your pilot id or email,
or register
Callsign
Passwort

Schedule Details

Flight Number: RYR4774 (4)
Departure: Milan Bergamo Il Caravaggio International Airport (LIME) at 18:00
Arrival: Thessaloniki International Airport (LGTS) at 20:05
Route: Ryanair Passenger Schedule. Enter filed route here before submitting Pirep.

Weather Information
Getting current METAR information for LIME 230650Z VRB06KT 5000 R28/1400U TSRA SCT010CB BKN050 19/18 Q1023 NOSIG
Getting current METAR information for LGTS 230650Z 28004KT CAVOK 29/19 Q1020 NOSIG

Schedule Frequency

Route Map